createdAt,value
2024-02-26T00:33:51.671Z,64.08
2024-02-26T00:38:54.007Z,63.65
2024-02-26T00:41:21.724Z,63.21
2024-02-26T00:43:48.566Z,63.31
2024-02-26T00:46:15.276Z,63.84
2024-02-26T00:48:42.190Z,63.96
2024-02-26T00:51:09.203Z,63.80
2024-02-26T00:53:36.015Z,64.06
2024-02-26T00:56:02.914Z,64.45
2024-02-26T00:58:29.550Z,64.04
2024-02-26T01:00:56.475Z,63.81
2024-02-26T01:03:23.311Z,64.20
2024-02-26T01:10:53.667Z,65.06
2024-02-26T01:13:20.386Z,64.40
2024-02-26T01:15:47.073Z,64.22
2024-02-26T01:18:14.014Z,63.93
2024-02-26T01:20:40.846Z,63.72
2024-02-26T01:23:07.571Z,64.36
2024-02-26T01:25:34.180Z,65.44
2024-02-26T01:28:00.874Z,64.23
2024-02-26T01:30:27.619Z,63.15
2024-02-26T01:32:54.558Z,62.64
2024-02-26T01:35:21.326Z,62.03
2024-02-26T01:37:48.143Z,63.87
2024-02-26T01:40:19.242Z,62.69
2024-02-26T01:42:46.083Z,62.30
2024-02-26T01:45:23.323Z,64.42
2024-02-26T01:47:53.192Z,63.10
2024-02-26T01:50:21.429Z,63.61
2024-02-26T01:52:49.035Z,65.48
2024-02-26T01:55:16.231Z,66.04
2024-02-26T01:57:45.102Z,65.47
2024-02-26T02:00:12.837Z,63.34
2024-02-26T02:02:40.173Z,63.92
2024-02-26T02:05:08.060Z,64.72
2024-02-26T02:07:36.862Z,66.36
2024-02-26T02:10:04.202Z,65.13
2024-02-26T02:12:34.218Z,66.39
2024-02-26T02:15:02.474Z,65.85
2024-02-26T02:17:29.653Z,66.74
2024-02-26T02:19:56.394Z,65.86
2024-02-26T02:22:23.590Z,66.00
2024-02-26T02:24:51.265Z,63.27
2024-02-26T02:27:18.080Z,62.85
2024-02-26T02:29:45.215Z,63.18
2024-02-26T02:32:12.095Z,63.11
2024-02-26T02:34:39.256Z,65.30
2024-02-26T02:37:06.017Z,65.91
2024-02-26T02:39:32.684Z,67.05
2024-02-26T02:41:59.432Z,65.46
2024-02-26T02:44:26.209Z,66.13
2024-02-26T02:46:54.515Z,62.74
2024-02-26T02:49:21.497Z,63.64
2024-02-26T02:51:48.277Z,62.22
2024-02-26T02:54:15.016Z,63.82
2024-02-26T02:59:19.209Z,63.19
2024-02-26T03:01:45.885Z,62.46
2024-02-26T03:04:12.611Z,66.50
2024-02-26T03:06:39.505Z,66.67
2024-02-26T03:09:06.245Z,69.74
2024-02-26T03:11:32.999Z,73.74
2024-02-26T03:13:59.689Z,73.62
2024-02-26T03:16:26.405Z,70.62
2024-02-26T03:18:53.490Z,69.65
2024-02-26T03:21:20.304Z,75.02
2024-02-26T03:26:21.187Z,67.60
2024-02-26T03:28:47.848Z,66.93
2024-02-26T03:31:14.801Z,66.52
2024-02-26T03:33:41.644Z,66.26
2024-02-26T03:36:08.913Z,65.81
2024-02-26T03:38:35.633Z,66.89
2024-02-26T03:41:02.372Z,64.73
2024-02-26T03:43:29.088Z,64.56
2024-02-26T03:45:55.781Z,65.40
2024-02-26T03:48:22.639Z,66.32
2024-02-26T03:53:22.174Z,67.81
2024-02-26T03:55:48.933Z,67.93
2024-02-26T03:58:16.713Z,70.77
2024-02-26T04:00:44.474Z,73.24
2024-02-26T04:03:11.568Z,70.90
2024-02-26T04:05:38.335Z,67.60
2024-02-26T04:08:08.335Z,100.00
2024-02-26T04:10:40.407Z,65.00
2024-02-26T04:13:09.038Z,67.87
2024-02-26T04:15:36.017Z,70.28
2024-02-26T04:18:04.320Z,72.63
2024-02-26T04:20:31.381Z,73.38
2024-02-26T04:22:58.052Z,72.58
2024-02-26T04:25:24.738Z,71.42
2024-02-26T04:27:51.454Z,71.84
2024-02-26T04:30:19.376Z,71.63
2024-02-26T04:32:46.235Z,100.00
2024-02-26T04:35:13.069Z,72.23
2024-02-26T04:37:39.753Z,100.00
2024-02-26T04:40:07.330Z,72.94
2024-02-26T04:42:34.036Z,74.19
2024-02-26T04:45:00.887Z,74.42
2024-02-26T04:47:27.697Z,74.68
2024-02-26T04:52:26.924Z,76.17
2024-02-26T04:54:53.762Z,76.23
2024-02-26T04:57:20.479Z,100.00
2024-02-26T04:59:47.454Z,100.00
2024-02-26T05:02:15.343Z,100.00
2024-02-26T05:04:42.163Z,100.00
2024-02-26T05:07:08.984Z,76.80
2024-02-26T05:09:35.939Z,76.27
2024-02-26T05:12:03.330Z,76.42
2024-02-26T05:14:30.113Z,100.00
2024-02-26T05:16:57.448Z,100.00
2024-02-26T05:19:24.298Z,100.00
2024-02-26T05:21:51.802Z,74.38
2024-02-26T05:24:19.207Z,74.76
2024-02-26T05:26:46.734Z,75.10
2024-02-26T05:29:13.607Z,74.37
2024-02-26T05:31:40.300Z,73.23
2024-02-26T05:34:07.136Z,72.93
2024-02-26T05:36:34.881Z,71.78
2024-02-26T05:39:02.673Z,71.84
2024-02-26T05:41:29.572Z,72.10
2024-02-26T05:43:57.156Z,71.33
2024-02-26T05:46:23.935Z,71.04
2024-02-26T05:48:53.178Z,71.66
2024-02-26T05:51:20.094Z,73.55
2024-02-26T05:53:48.317Z,74.68
2024-02-26T05:56:15.074Z,74.78
2024-02-26T05:58:41.771Z,76.37
2024-02-26T06:01:08.709Z,77.09
2024-02-26T06:03:35.560Z,83.83
2024-02-26T06:06:02.570Z,83.28
2024-02-26T06:08:29.315Z,85.91
2024-02-26T06:10:56.070Z,90.10
2024-02-26T06:13:22.800Z,91.46
2024-02-26T06:15:49.513Z,91.08
2024-02-26T06:18:16.304Z,92.97
2024-02-26T06:20:43.032Z,94.67
2024-02-26T06:23:09.801Z,94.98
2024-02-26T06:25:36.510Z,97.66
2024-02-26T06:28:03.298Z,97.02
2024-02-26T06:30:30.105Z,95.52
2024-02-26T06:35:30.444Z,92.18
2024-02-26T06:37:57.352Z,93.16
2024-02-26T06:40:24.104Z,95.33
2024-02-26T06:42:51.578Z,94.76
2024-02-26T06:45:19.672Z,91.99
2024-02-26T06:47:46.905Z,91.97
2024-02-26T06:50:14.489Z,88.99
2024-02-26T06:55:19.697Z,87.01
2024-02-26T07:00:19.538Z,86.67
2024-02-26T07:02:46.386Z,83.82
2024-02-26T07:05:13.789Z,89.23
2024-02-26T07:07:40.660Z,92.58
2024-02-26T07:10:07.839Z,92.56
2024-02-26T07:15:09.595Z,83.62
2024-02-26T07:17:36.726Z,83.42
2024-02-26T07:20:08.715Z,82.59
2024-02-26T07:22:37.092Z,83.69
2024-02-26T07:25:04.827Z,84.53
2024-02-26T07:27:31.602Z,85.03
2024-02-26T07:29:58.349Z,84.81
2024-02-26T07:32:25.227Z,85.94
2024-02-26T07:34:52.029Z,87.50
2024-02-26T07:37:19.066Z,84.98
2024-02-26T07:39:45.859Z,84.07
2024-02-26T07:42:12.688Z,86.61
2024-02-26T07:44:39.452Z,85.17
2024-02-26T07:47:06.222Z,85.09
2024-02-26T07:49:35.332Z,86.79
2024-02-26T07:52:02.970Z,85.20
2024-02-26T07:54:29.751Z,85.55
2024-02-26T07:56:56.494Z,87.07
2024-02-26T07:59:23.217Z,87.38
2024-02-26T08:01:56.296Z,88.77
2024-02-26T08:04:25.651Z,89.15
2024-02-26T08:06:52.614Z,90.01
2024-02-26T08:09:19.381Z,90.32
2024-02-26T08:11:46.119Z,88.86
2024-02-26T08:14:13.145Z,89.79
2024-02-26T08:16:39.853Z,89.92
2024-02-26T08:19:06.654Z,89.91
2024-02-26T08:21:33.451Z,90.21
2024-02-26T08:24:00.175Z,89.61
2024-02-26T08:26:26.929Z,87.06
2024-02-26T08:31:25.053Z,87.92
2024-02-26T08:33:51.975Z,90.08
2024-02-26T08:36:19.194Z,91.53
2024-02-26T08:38:46.002Z,91.59
2024-02-26T08:41:12.799Z,92.03
2024-02-26T08:43:39.440Z,93.41
2024-02-26T08:46:10.002Z,94.08
2024-02-26T08:48:36.792Z,95.02
2024-02-26T08:51:09.502Z,98.48
2024-02-26T08:53:42.482Z,100.00
2024-02-26T08:56:12.757Z,100.00
2024-02-26T08:58:39.583Z,100.00
2024-02-26T09:01:06.400Z,100.00
2024-02-26T09:03:33.170Z,100.00
2024-02-26T09:05:59.945Z,95.27
2024-02-26T09:08:26.829Z,90.84
2024-02-26T09:10:53.669Z,90.83
2024-02-26T09:13:20.412Z,88.68
2024-02-26T09:15:47.110Z,86.45
2024-02-26T09:18:14.744Z,86.75
2024-02-26T09:20:41.788Z,86.01
2024-02-26T09:23:08.514Z,87.23
2024-02-26T09:25:35.209Z,95.02
2024-02-26T09:28:02.763Z,95.90
2024-02-26T09:30:29.609Z,97.36
2024-02-26T09:32:56.409Z,97.29
2024-02-26T09:35:23.256Z,98.77
2024-02-26T09:37:51.053Z,96.71
2024-02-26T09:40:17.966Z,95.47
2024-02-26T09:42:46.988Z,95.80
2024-02-26T09:45:19.496Z,89.99
2024-02-26T09:47:49.213Z,94.35
2024-02-26T09:50:24.568Z,95.08
2024-02-26T09:55:30.352Z,88.07
2024-02-26T09:57:57.456Z,85.56
2024-02-26T10:00:26.643Z,85.04
2024-02-26T10:02:53.470Z,86.31
2024-02-26T10:05:20.692Z,81.10
2024-02-26T10:07:48.020Z,81.75
2024-02-26T10:10:19.132Z,83.05
2024-02-26T10:12:45.890Z,83.51
2024-02-26T10:15:12.686Z,82.29
2024-02-26T10:17:40.244Z,81.24
2024-02-26T10:20:19.413Z,80.80
2024-02-26T10:22:46.921Z,81.01
2024-02-26T10:25:14.071Z,71.77
2024-02-26T10:27:43.853Z,72.47
2024-02-26T10:30:22.658Z,72.12
2024-02-26T10:32:53.334Z,71.82
2024-02-26T10:35:23.870Z,69.55
2024-02-26T10:37:51.347Z,69.13
2024-02-26T10:40:18.546Z,67.36
2024-02-26T10:42:46.905Z,63.89
2024-02-26T10:45:13.862Z,61.58
2024-02-26T10:47:42.094Z,59.11
2024-02-26T10:50:09.393Z,58.29
2024-02-26T10:52:37.627Z,57.04
2024-02-26T10:55:08.655Z,55.34
2024-02-26T10:57:43.535Z,56.00
2024-02-26T11:00:14.238Z,56.88
2024-02-26T11:02:42.246Z,55.96
2024-02-26T11:05:09.567Z,56.21
2024-02-26T11:07:39.671Z,57.13
2024-02-26T11:10:07.195Z,55.35
2024-02-26T11:12:38.368Z,57.69
2024-02-26T11:15:06.369Z,55.64
2024-02-26T11:17:35.672Z,56.55
2024-02-26T11:20:05.408Z,53.97
2024-02-26T11:22:33.376Z,52.24
2024-02-26T11:25:01.928Z,49.92
2024-02-26T11:27:34.466Z,47.04
2024-02-26T11:30:03.665Z,46.82
2024-02-26T11:32:31.852Z,45.97
2024-02-26T11:35:01.663Z,48.99
2024-02-26T11:37:28.872Z,48.01
2024-02-26T11:39:55.647Z,49.88
2024-02-26T11:45:47.716Z,51.25
2024-02-26T11:48:15.827Z,52.22
2024-02-26T11:50:56.424Z,52.51
2024-02-26T11:53:27.293Z,53.68
2024-02-26T11:56:18.825Z,53.78
2024-02-26T11:58:45.805Z,52.98
2024-02-26T12:01:51.351Z,53.36
2024-02-26T12:04:19.746Z,54.43
2024-02-26T12:06:54.951Z,54.33
2024-02-26T12:09:42.498Z,53.80
2024-02-26T12:12:19.780Z,57.67
2024-02-26T12:14:54.489Z,53.53
2024-02-26T12:17:25.829Z,53.45
2024-02-26T12:19:54.940Z,53.80
2024-02-26T12:22:21.969Z,53.51
2024-02-26T12:24:48.659Z,54.72
2024-02-26T12:27:16.784Z,53.19
2024-02-26T12:29:43.559Z,56.73
2024-02-26T12:32:10.362Z,52.49
2024-02-26T12:34:37.238Z,52.30
2024-02-26T12:37:04.769Z,52.79
2024-02-26T12:39:32.007Z,55.63
2024-02-26T12:42:01.026Z,56.04
2024-02-26T12:44:28.018Z,53.75
2024-02-26T12:47:06.354Z,54.82
2024-02-26T12:49:33.756Z,53.71
2024-02-26T12:52:04.003Z,55.50
2024-02-26T12:54:33.476Z,59.19
2024-02-26T12:57:03.486Z,58.77
2024-02-26T12:59:31.373Z,59.26
2024-02-26T13:01:59.025Z,56.48
2024-02-26T13:04:27.215Z,54.68
2024-02-26T13:09:28.310Z,56.57
2024-02-26T13:11:57.876Z,56.05
2024-02-26T13:14:24.720Z,56.31
2024-02-26T13:16:58.145Z,56.13
2024-02-26T13:19:25.355Z,53.02
2024-02-26T13:21:52.245Z,52.98
2024-02-26T13:24:21.409Z,49.62
2024-02-26T13:26:48.333Z,54.62
2024-02-26T13:29:19.654Z,54.82
2024-02-26T13:31:46.683Z,56.64
2024-02-26T13:34:28.435Z,59.53
2024-02-26T13:36:56.231Z,54.52
2024-02-26T13:39:25.191Z,52.37
2024-02-26T13:41:56.058Z,53.38
2024-02-26T13:44:22.999Z,57.55
2024-02-26T13:46:50.756Z,56.53
2024-02-26T13:49:17.920Z,57.21
2024-02-26T13:51:44.878Z,57.73
2024-02-26T13:54:12.010Z,57.33
2024-02-26T13:56:38.978Z,57.60
2024-02-26T13:59:05.975Z,53.23
2024-02-26T14:01:34.745Z,52.54
2024-02-26T14:04:04.046Z,53.34
2024-02-26T14:06:32.341Z,54.36
2024-02-26T14:09:00.059Z,54.13
2024-02-26T14:11:26.964Z,50.83
2024-02-26T14:13:53.729Z,49.53
2024-02-26T14:16:21.748Z,49.98
2024-02-26T14:18:48.783Z,50.30
2024-02-26T14:21:16.020Z,50.33
2024-02-26T14:23:44.235Z,50.58
2024-02-26T14:26:10.945Z,51.37
2024-02-26T14:31:14.791Z,50.48
2024-02-26T14:33:41.882Z,50.31
2024-02-26T14:36:09.186Z,49.32
2024-02-26T14:38:36.236Z,49.50
2024-02-26T14:41:03.876Z,49.81
2024-02-26T14:43:31.302Z,50.96
2024-02-26T14:48:32.259Z,51.59
2024-02-26T14:51:00.411Z,49.90
2024-02-26T14:56:06.897Z,51.33
2024-02-26T14:58:33.576Z,50.62
2024-02-26T15:01:00.345Z,51.06
2024-02-26T15:03:27.092Z,49.90
2024-02-26T15:05:54.160Z,50.45
2024-02-26T15:08:20.932Z,50.27
2024-02-26T15:10:50.550Z,51.72
2024-02-26T15:15:50.431Z,49.96
2024-02-26T15:18:17.869Z,49.97
2024-02-26T15:20:45.525Z,50.99
2024-02-26T15:23:13.176Z,51.41
2024-02-26T15:25:42.775Z,52.59
2024-02-26T15:28:11.718Z,52.24
2024-02-26T15:30:38.636Z,52.60
2024-02-26T15:33:05.683Z,52.92
2024-02-26T15:35:32.566Z,53.52
2024-02-26T15:37:59.382Z,53.84
2024-02-26T15:40:26.398Z,55.70
2024-02-26T15:42:53.097Z,54.82
2024-02-26T15:45:20.126Z,55.65
2024-02-26T15:47:49.011Z,53.98
2024-02-26T15:50:15.948Z,54.32
2024-02-26T15:55:17.060Z,55.59
2024-02-26T15:57:45.434Z,56.75
2024-02-26T16:00:13.178Z,56.55
2024-02-26T16:02:40.900Z,59.04
2024-02-26T16:05:09.938Z,58.47
2024-02-26T16:07:44.910Z,58.67
2024-02-26T16:10:11.611Z,60.07
2024-02-26T16:12:41.998Z,56.91
2024-02-26T16:15:10.603Z,56.06
2024-02-26T16:17:48.368Z,54.08
2024-02-26T16:20:17.308Z,52.13
2024-02-26T16:22:43.945Z,51.04
2024-02-26T16:25:10.848Z,50.04
2024-02-26T16:27:38.647Z,49.86
2024-02-26T16:32:41.142Z,100.00
2024-02-26T16:35:08.685Z,50.74
2024-02-26T16:37:36.225Z,50.45
2024-02-26T16:40:10.193Z,50.41
2024-02-26T16:45:15.403Z,51.02
2024-02-26T16:47:43.228Z,50.95
2024-02-26T16:50:12.931Z,51.60
2024-02-26T16:52:39.749Z,51.73
2024-02-26T16:55:07.029Z,51.67
2024-02-26T16:57:33.924Z,52.30
2024-02-26T17:00:00.813Z,52.10
2024-02-26T17:02:27.525Z,52.22
2024-02-26T17:04:54.234Z,52.22
2024-02-26T17:07:22.521Z,52.54
2024-02-26T17:09:51.306Z,52.11
2024-02-26T17:14:59.630Z,53.28
2024-02-26T17:22:32.313Z,52.77
2024-02-26T17:24:59.044Z,53.25
2024-02-26T17:27:26.032Z,52.85
2024-02-26T17:29:52.957Z,53.69
2024-02-26T17:32:19.681Z,54.30
2024-02-26T17:34:48.584Z,54.69
2024-02-26T17:37:15.720Z,55.25
2024-02-26T17:39:42.735Z,55.16
2024-02-26T17:42:09.605Z,55.69
2024-02-26T17:47:18.808Z,55.88
2024-02-26T17:49:48.473Z,57.22
2024-02-26T17:52:15.234Z,60.12
2024-02-26T17:54:41.924Z,60.45
2024-02-26T17:59:39.835Z,57.83
2024-02-26T18:02:07.154Z,57.08
2024-02-26T18:04:34.442Z,59.03
2024-02-26T18:07:02.104Z,60.11
2024-02-26T18:09:28.897Z,59.61
2024-02-26T18:17:08.624Z,58.05
2024-02-26T18:19:35.589Z,59.06
2024-02-26T18:22:02.484Z,58.99
2024-02-26T18:24:29.392Z,61.99
2024-02-26T18:26:56.172Z,60.44
2024-02-26T18:29:23.090Z,59.68
2024-02-26T18:34:21.323Z,59.80
2024-02-26T18:36:48.447Z,58.98
2024-02-26T18:39:15.298Z,60.52
2024-02-26T18:41:41.969Z,60.39
2024-02-26T18:44:08.677Z,62.33
2024-02-26T18:46:36.252Z,62.31
2024-02-26T18:49:03.112Z,63.84
2024-02-26T18:51:30.071Z,63.10
2024-02-26T18:56:28.146Z,68.39
2024-02-26T18:58:54.882Z,69.21
2024-02-26T19:01:21.668Z,69.05
2024-02-26T19:03:48.555Z,69.38
2024-02-26T19:06:15.544Z,69.37
2024-02-26T19:13:45.681Z,67.27
2024-02-26T19:16:13.897Z,66.89
2024-02-26T19:18:41.950Z,66.69
2024-02-26T19:21:08.886Z,62.07
2024-02-26T19:26:14.081Z,65.98
2024-02-26T19:28:45.954Z,67.35
2024-02-26T19:31:14.052Z,68.40
2024-02-26T19:33:40.973Z,68.71
2024-02-26T19:36:08.793Z,68.56
2024-02-26T19:38:35.472Z,68.87
2024-02-26T19:41:02.220Z,69.25
2024-02-26T19:43:28.853Z,69.28
2024-02-26T19:45:55.556Z,67.19
2024-02-26T19:48:22.371Z,66.72
2024-02-26T19:53:21.050Z,66.08
2024-02-26T19:55:47.872Z,68.02
2024-02-26T19:58:14.699Z,69.41
2024-02-26T20:00:41.514Z,70.68
2024-02-26T20:03:08.564Z,70.24
2024-02-26T20:05:35.898Z,70.80
2024-02-26T20:08:02.579Z,70.36
2024-02-26T20:10:29.249Z,69.86
2024-02-26T20:13:00.499Z,70.85
2024-02-26T20:15:27.394Z,71.20
2024-02-26T20:20:31.454Z,72.41
2024-02-26T20:22:58.256Z,73.21
2024-02-26T20:25:24.959Z,71.96
2024-02-26T20:27:51.707Z,72.82
2024-02-26T20:30:18.770Z,72.21
2024-02-26T20:32:45.534Z,71.32
2024-02-26T20:35:12.315Z,70.65
2024-02-26T20:40:12.449Z,72.33
2024-02-26T20:42:40.456Z,73.55
2024-02-26T20:45:07.648Z,71.69
2024-02-26T20:47:34.439Z,72.21
2024-02-26T20:50:02.765Z,64.68
2024-02-26T20:52:29.497Z,62.66
2024-02-26T20:54:58.001Z,63.74
2024-02-26T20:57:24.882Z,63.69
2024-02-26T21:17:22.904Z,62.50
2024-02-26T22:09:22.011Z,74.95
2024-02-26T22:11:49.488Z,77.66
2024-02-26T22:14:16.806Z,80.35
2024-02-26T22:16:43.515Z,80.60
2024-02-26T22:19:14.084Z,80.37
2024-02-26T22:21:44.377Z,82.93
2024-02-26T22:24:11.254Z,83.72
2024-02-26T22:26:38.036Z,84.13
2024-02-26T22:29:04.722Z,83.57
2024-02-26T22:31:31.447Z,83.63
2024-02-26T22:33:58.212Z,83.20
2024-02-26T22:36:25.035Z,84.26
2024-02-26T22:38:51.710Z,83.23
2024-02-26T22:41:18.437Z,82.40
2024-02-26T22:43:45.134Z,82.40
2024-02-26T22:46:11.778Z,81.70
2024-02-26T22:53:54.764Z,82.39
2024-02-26T22:58:53.199Z,80.76
2024-02-26T23:01:19.983Z,81.23
2024-02-26T23:03:46.729Z,81.19
2024-02-26T23:06:13.594Z,83.13
2024-02-26T23:08:43.189Z,81.19
2024-02-26T23:13:42.961Z,80.45
2024-02-26T23:16:10.340Z,79.11
2024-02-26T23:18:38.337Z,79.99
2024-02-26T23:21:05.738Z,79.94
2024-02-26T23:23:32.536Z,80.50
2024-02-26T23:25:59.282Z,81.30
2024-02-26T23:30:57.447Z,80.77
2024-02-26T23:33:24.293Z,80.71
2024-02-26T23:35:51.074Z,81.18
2024-02-26T23:38:17.833Z,80.49
2024-02-26T23:43:21.731Z,82.93
2024-02-26T23:48:20.835Z,81.29
2024-02-26T23:50:47.652Z,82.22
2024-02-26T23:53:14.368Z,84.14
2024-02-26T23:55:41.116Z,83.85
2024-02-26T23:58:07.759Z,83.19
